BAW49B EGLL-LXGB
Flight info
| Callsign | BAW49B |
|---|---|
| Flight time | 2h 37m |
| Altitude | 37000 |
| Route | GASGU N866 SAM M195 MARUK N621 LELNA DCT ERCOZ DCT NOVAN DCT DELOG DCT CRISA DCT VULPE DCT MAR N864 PIMOS |
| Aircraft | A320/M-SDE3FGHIRWY/LB1 |
Departure
| Time | 2026-05-06 09:37 |
|---|---|
| Airport | London Heathrow Airport (EGLL) |
Arrival
| Time | 2026-05-06 12:14 |
|---|---|
| Airport | Gibraltar Airport (LXGB) |
| Time | Latitude | Longitude | Altitude | Speed | Heading |
|---|---|---|---|---|---|
| 2026-05-06 08:51 | 51.46826 | -0.45181 | 90 ft | 0 kts | 359° |
| 2026-05-06 09:11 | 51.46822 | -0.45181 | 86 ft | 3 kts | 359° |
| 2026-05-06 09:12 | 51.46819 | -0.45181 | 86 ft | 4 kts | 359° |
| 2026-05-06 09:12 | 51.46794 | -0.45181 | 88 ft | 2 kts | 359° |
| 2026-05-06 09:12 | 51.46793 | -0.45181 | 88 ft | 0 kts | 359° |
| 2026-05-06 09:13 | 51.46794 | -0.45181 | 88 ft | 0 kts | 359° |
| 2026-05-06 09:13 | 51.46800 | -0.45181 | 87 ft | 1 kts | 359° |
| 2026-05-06 09:13 | 51.46804 | -0.45181 | 87 ft | 0 kts | 359° |
| 2026-05-06 09:16 | 51.46798 | -0.45181 | 88 ft | 4 kts | 359° |
| 2026-05-06 09:16 | 51.46776 | -0.45181 | 87 ft | 4 kts | 356° |
| 2026-05-06 09:16 | 51.46755 | -0.45169 | 88 ft | 4 kts | 297° |
| 2026-05-06 09:16 | 51.46751 | -0.45132 | 88 ft | 4 kts | 270° |
| 2026-05-06 09:17 | 51.46751 | -0.45118 | 87 ft | 0 kts | 270° |
| 2026-05-06 09:19 | 51.46751 | -0.45120 | 87 ft | 2 kts | 270° |
| 2026-05-06 09:20 | 51.46751 | -0.45196 | 89 ft | 9 kts | 270° |
| 2026-05-06 09:20 | 51.46750 | -0.45311 | 86 ft | 11 kts | 270° |
| 2026-05-06 09:20 | 51.46750 | -0.45455 | 86 ft | 14 kts | 270° |
| 2026-05-06 09:20 | 51.46750 | -0.45626 | 86 ft | 17 kts | 270° |
| 2026-05-06 09:21 | 51.46751 | -0.45826 | 86 ft | 19 kts | 270° |
| 2026-05-06 09:21 | 51.46748 | -0.46040 | 86 ft | 20 kts | 270° |
| 2026-05-06 09:21 | 51.46748 | -0.46279 | 86 ft | 22 kts | 270° |
| 2026-05-06 09:21 | 51.46749 | -0.46541 | 86 ft | 24 kts | 271° |
| 2026-05-06 09:22 | 51.46749 | -0.46756 | 86 ft | 14 kts | 269° |
| 2026-05-06 09:22 | 51.46748 | -0.46930 | 86 ft | 17 kts | 269° |
| 2026-05-06 09:22 | 51.46747 | -0.47130 | 90 ft | 19 kts | 270° |
| 2026-05-06 09:22 | 51.46746 | -0.47299 | 86 ft | 14 kts | 269° |
| 2026-05-06 09:23 | 51.46745 | -0.47449 | 86 ft | 14 kts | 270° |
| 2026-05-06 09:23 | 51.46745 | -0.47622 | 86 ft | 17 kts | 270° |
| 2026-05-06 09:23 | 51.46744 | -0.47713 | 86 ft | 6 kts | 269° |
| 2026-05-06 09:23 | 51.46744 | -0.47793 | 86 ft | 8 kts | 270° |
| 2026-05-06 09:24 | 51.46744 | -0.47881 | 86 ft | 4 kts | 270° |
| 2026-05-06 09:24 | 51.46744 | -0.47910 | 86 ft | 1 kts | 270° |
| 2026-05-06 09:24 | 51.46744 | -0.47915 | 86 ft | 0 kts | 270° |
| 2026-05-06 09:26 | 51.46744 | -0.47928 | 86 ft | 2 kts | 270° |
| 2026-05-06 09:26 | 51.46744 | -0.47957 | 86 ft | 4 kts | 270° |
| 2026-05-06 09:26 | 51.46744 | -0.48006 | 86 ft | 5 kts | 270° |
| 2026-05-06 09:27 | 51.46744 | -0.48031 | 86 ft | 3 kts | 269° |
| 2026-05-06 09:27 | 51.46743 | -0.48087 | 86 ft | 7 kts | 269° |
| 2026-05-06 09:27 | 51.46743 | -0.48173 | 86 ft | 9 kts | 269° |
| 2026-05-06 09:27 | 51.46742 | -0.48284 | 86 ft | 11 kts | 270° |
| 2026-05-06 09:28 | 51.46743 | -0.48404 | 86 ft | 6 kts | 271° |
| 2026-05-06 09:28 | 51.46743 | -0.48468 | 86 ft | 1 kts | 271° |
| 2026-05-06 09:28 | 51.46744 | -0.48488 | 86 ft | 3 kts | 271° |
| 2026-05-06 09:28 | 51.46743 | -0.48532 | 86 ft | 5 kts | 268° |
| 2026-05-06 09:29 | 51.46743 | -0.48565 | 86 ft | 3 kts | 269° |
| 2026-05-06 09:29 | 51.46742 | -0.48592 | 86 ft | 0 kts | 268° |
| 2026-05-06 09:31 | 51.46742 | -0.48595 | 86 ft | 2 kts | 268° |
| 2026-05-06 09:31 | 51.46742 | -0.48631 | 86 ft | 5 kts | 268° |
| 2026-05-06 09:31 | 51.46741 | -0.48695 | 86 ft | 7 kts | 268° |
| 2026-05-06 09:31 | 51.46725 | -0.48737 | 89 ft | 7 kts | 212° |
| 2026-05-06 09:32 | 51.46677 | -0.48748 | 86 ft | 6 kts | 182° |
| 2026-05-06 09:32 | 51.46647 | -0.48749 | 86 ft | 4 kts | 181° |
| 2026-05-06 09:32 | 51.46634 | -0.48751 | 86 ft | 2 kts | 189° |
| 2026-05-06 09:32 | 51.46632 | -0.48752 | 86 ft | 0 kts | 191° |
| 2026-05-06 09:33 | 51.46614 | -0.48759 | 87 ft | 4 kts | 194° |
| 2026-05-06 09:33 | 51.46575 | -0.48777 | 87 ft | 7 kts | 197° |
| 2026-05-06 09:34 | 51.46521 | -0.48780 | 88 ft | 9 kts | 159° |
| 2026-05-06 09:34 | 51.46481 | -0.48699 | 87 ft | 10 kts | 104° |
| 2026-05-06 09:34 | 51.46479 | -0.48665 | 86 ft | 0 kts | 92° |
| 2026-05-06 09:35 | 51.46479 | -0.48663 | 86 ft | 1 kts | 92° |
| 2026-05-06 09:35 | 51.46479 | -0.48660 | 86 ft | 0 kts | 92° |
| 2026-05-06 09:36 | 51.46479 | -0.48638 | 86 ft | 5 kts | 92° |
| 2026-05-06 09:36 | 51.46480 | -0.48238 | 90 ft | 71 kts | 89° |
| 2026-05-06 09:36 | 51.46485 | -0.47116 | 90 ft | 127 kts | 89° |
| 2026-05-06 09:37 | 51.46484 | -0.45529 | 141 ft | 162 kts | 92° |
| 2026-05-06 09:37 | 51.46463 | -0.43720 | 712 ft | 164 kts | 85° |
| 2026-05-06 09:37 | 51.46414 | -0.41885 | 1370 ft | 168 kts | 96° |
| 2026-05-06 09:37 | 51.45858 | -0.40119 | 1735 ft | 192 kts | 126° |
| 2026-05-06 09:38 | 51.44994 | -0.38350 | 2009 ft | 212 kts | 122° |
| 2026-05-06 09:38 | 51.44130 | -0.36267 | 2306 ft | 239 kts | 119° |
| 2026-05-06 09:38 | 51.43074 | -0.34062 | 2833 ft | 261 kts | 136° |
| 2026-05-06 09:38 | 51.41429 | -0.32688 | 3563 ft | 277 kts | 166° |
| 2026-05-06 09:39 | 51.39509 | -0.32731 | 4445 ft | 280 kts | 196° |
| 2026-05-06 09:39 | 51.37779 | -0.34140 | 5239 ft | 281 kts | 223° |
| 2026-05-06 09:39 | 51.36334 | -0.36268 | 5831 ft | 283 kts | 227° |
| 2026-05-06 09:39 | 51.34914 | -0.38409 | 5938 ft | 280 kts | 227° |
| 2026-05-06 09:40 | 51.33501 | -0.40507 | 5939 ft | 279 kts | 226° |
| 2026-05-06 09:40 | 51.32067 | -0.42580 | 5985 ft | 278 kts | 225° |
| 2026-05-06 09:40 | 51.29819 | -0.47428 | 6404 ft | 275 kts | 258° |
| 2026-05-06 09:41 | 51.29410 | -0.50371 | 7393 ft | 268 kts | 261° |
| 2026-05-06 09:41 | 51.28976 | -0.53277 | 8256 ft | 273 kts | 258° |
| 2026-05-06 09:41 | 51.28468 | -0.56246 | 8965 ft | 280 kts | 256° |
| 2026-05-06 09:41 | 51.27912 | -0.59278 | 9720 ft | 286 kts | 255° |
| 2026-05-06 09:42 | 51.27320 | -0.62356 | 10322 ft | 296 kts | 257° |
| 2026-05-06 09:42 | 51.27110 | -0.65714 | 10511 ft | 315 kts | 273° |
| 2026-05-06 09:42 | 51.27231 | -0.69332 | 10651 ft | 337 kts | 276° |
| 2026-05-06 09:42 | 51.27397 | -0.73200 | 10846 ft | 356 kts | 277° |
| 2026-05-06 09:43 | 51.27579 | -0.77120 | 11386 ft | 361 kts | 276° |
| 2026-05-06 09:43 | 51.27781 | -0.81141 | 11992 ft | 365 kts | 276° |
| 2026-05-06 09:43 | 51.27996 | -0.85201 | 12655 ft | 367 kts | 277° |
| 2026-05-06 09:43 | 51.28206 | -0.89285 | 13316 ft | 370 kts | 275° |
| 2026-05-06 09:44 | 51.28424 | -0.93394 | 13995 ft | 371 kts | 276° |
| 2026-05-06 09:44 | 51.28646 | -0.97524 | 14557 ft | 374 kts | 276° |
| 2026-05-06 09:44 | 51.28875 | -1.01686 | 14905 ft | 377 kts | 276° |
| 2026-05-06 09:44 | 51.29105 | -1.05857 | 14989 ft | 377 kts | 276° |
| 2026-05-06 09:45 | 51.29262 | -1.10048 | 15001 ft | 379 kts | 268° |
| 2026-05-06 09:45 | 51.28752 | -1.14163 | 15003 ft | 380 kts | 250° |
| 2026-05-06 09:45 | 51.27451 | -1.17839 | 15001 ft | 383 kts | 232° |
| 2026-05-06 09:45 | 51.25469 | -1.20684 | 15002 ft | 387 kts | 213° |
| 2026-05-06 09:46 | 51.23034 | -1.22383 | 14998 ft | 390 kts | 198° |
| 2026-05-06 09:46 | 51.20417 | -1.23557 | 14998 ft | 391 kts | 197° |
| 2026-05-06 09:46 | 51.17788 | -1.24711 | 14998 ft | 391 kts | 197° |
| 2026-05-06 09:46 | 51.15166 | -1.25855 | 15013 ft | 391 kts | 196° |
| 2026-05-06 09:47 | 51.12544 | -1.27003 | 15063 ft | 394 kts | 198° |
| 2026-05-06 09:47 | 51.09996 | -1.28609 | 15633 ft | 393 kts | 206° |
| 2026-05-06 09:47 | 51.07515 | -1.30461 | 16214 ft | 395 kts | 207° |
| 2026-05-06 09:47 | 51.05013 | -1.32330 | 16803 ft | 397 kts | 207° |
| 2026-05-06 09:48 | 51.02511 | -1.34206 | 17349 ft | 400 kts | 207° |
| 2026-05-06 09:48 | 50.99983 | -1.36110 | 17924 ft | 402 kts | 207° |
| 2026-05-06 09:48 | 50.97477 | -1.37998 | 18439 ft | 405 kts | 207° |
| 2026-05-06 09:48 | 50.94888 | -1.39945 | 18934 ft | 408 kts | 206° |
| 2026-05-06 09:49 | 50.92358 | -1.41842 | 19421 ft | 410 kts | 207° |
| 2026-05-06 09:49 | 50.89770 | -1.43780 | 19912 ft | 412 kts | 206° |
| 2026-05-06 09:49 | 50.87165 | -1.45724 | 20394 ft | 415 kts | 207° |
| 2026-05-06 09:49 | 50.84547 | -1.47671 | 20855 ft | 417 kts | 206° |
| 2026-05-06 09:50 | 50.81908 | -1.49628 | 21295 ft | 419 kts | 206° |
| 2026-05-06 09:50 | 50.79256 | -1.51594 | 21742 ft | 422 kts | 206° |
| 2026-05-06 09:50 | 50.76592 | -1.53568 | 22176 ft | 424 kts | 207° |
| 2026-05-06 09:50 | 50.73915 | -1.55553 | 22589 ft | 426 kts | 207° |
| 2026-05-06 09:51 | 50.71227 | -1.57548 | 22986 ft | 428 kts | 207° |
| 2026-05-06 09:51 | 50.68518 | -1.59558 | 23384 ft | 431 kts | 207° |
| 2026-05-06 09:51 | 50.65800 | -1.61567 | 23754 ft | 433 kts | 207° |
| 2026-05-06 09:51 | 50.63066 | -1.63583 | 24068 ft | 435 kts | 206° |
| 2026-05-06 09:52 | 50.60313 | -1.65605 | 24375 ft | 438 kts | 206° |
| 2026-05-06 09:52 | 50.57579 | -1.67610 | 24698 ft | 440 kts | 206° |
| 2026-05-06 09:52 | 50.54952 | -1.69537 | 24996 ft | 442 kts | 206° |
| 2026-05-06 09:52 | 50.52158 | -1.71588 | 25322 ft | 444 kts | 207° |
| 2026-05-06 09:53 | 50.49348 | -1.73652 | 25645 ft | 446 kts | 207° |
| 2026-05-06 09:53 | 50.46521 | -1.75725 | 25959 ft | 449 kts | 206° |
| 2026-05-06 09:53 | 50.43693 | -1.77793 | 26365 ft | 449 kts | 206° |
| 2026-05-06 09:53 | 50.40871 | -1.79856 | 26836 ft | 447 kts | 206° |
| 2026-05-06 09:54 | 50.38049 | -1.81919 | 27254 ft | 447 kts | 206° |
| 2026-05-06 09:54 | 50.35227 | -1.83975 | 27676 ft | 447 kts | 206° |
| 2026-05-06 09:54 | 50.32405 | -1.86024 | 28142 ft | 445 kts | 206° |
| 2026-05-06 09:54 | 50.29596 | -1.88060 | 28669 ft | 444 kts | 206° |
| 2026-05-06 09:55 | 50.26795 | -1.90085 | 29144 ft | 442 kts | 207° |
| 2026-05-06 09:55 | 50.24005 | -1.92102 | 29614 ft | 441 kts | 207° |
| 2026-05-06 09:55 | 50.21269 | -1.94260 | 30073 ft | 440 kts | 211° |
| 2026-05-06 09:55 | 50.18652 | -1.96592 | 30451 ft | 439 kts | 212° |
| 2026-05-06 09:56 | 50.16015 | -1.99008 | 30794 ft | 440 kts | 212° |
| 2026-05-06 09:56 | 50.13384 | -2.01462 | 31106 ft | 441 kts | 212° |
| 2026-05-06 09:56 | 50.10754 | -2.03923 | 31449 ft | 442 kts | 213° |
| 2026-05-06 09:56 | 50.08111 | -2.06387 | 31813 ft | 442 kts | 211° |
| 2026-05-06 09:57 | 50.05470 | -2.08826 | 32236 ft | 441 kts | 212° |
| 2026-05-06 09:57 | 50.02820 | -2.11251 | 32622 ft | 442 kts | 212° |
| 2026-05-06 09:57 | 50.00171 | -2.13664 | 33016 ft | 441 kts | 212° |
| 2026-05-06 09:57 | 49.97526 | -2.16071 | 33409 ft | 441 kts | 211° |
| 2026-05-06 09:58 | 49.94872 | -2.18486 | 33773 ft | 441 kts | 212° |
| 2026-05-06 09:58 | 49.92256 | -2.20867 | 34090 ft | 442 kts | 211° |
| 2026-05-06 09:58 | 49.89599 | -2.23287 | 34365 ft | 443 kts | 212° |
| 2026-05-06 09:58 | 49.86939 | -2.25710 | 34650 ft | 443 kts | 211° |
| 2026-05-06 09:59 | 49.84283 | -2.28126 | 35025 ft | 441 kts | 211° |
| 2026-05-06 09:59 | 49.81645 | -2.30515 | 35437 ft | 438 kts | 212° |
| 2026-05-06 09:59 | 49.79016 | -2.32891 | 35777 ft | 436 kts | 212° |
| 2026-05-06 09:59 | 49.76398 | -2.35253 | 36090 ft | 436 kts | 211° |
| 2026-05-06 10:00 | 49.73777 | -2.37612 | 36396 ft | 435 kts | 211° |
| 2026-05-06 10:00 | 49.71167 | -2.39958 | 36681 ft | 434 kts | 212° |
| 2026-05-06 10:00 | 49.68551 | -2.42308 | 36896 ft | 435 kts | 211° |
| 2026-05-06 10:00 | 49.65928 | -2.44666 | 36994 ft | 438 kts | 211° |
| 2026-05-06 10:01 | 49.60599 | -2.49459 | 37000 ft | 446 kts | 211° |
| 2026-05-06 10:01 | 49.55245 | -2.54258 | 37001 ft | 448 kts | 211° |
| 2026-05-06 10:02 | 49.49853 | -2.59074 | 37002 ft | 448 kts | 211° |
| 2026-05-06 10:02 | 49.44433 | -2.63905 | 37002 ft | 450 kts | 211° |
| 2026-05-06 10:03 | 49.39005 | -2.68723 | 37004 ft | 451 kts | 211° |
| 2026-05-06 10:03 | 49.33573 | -2.73538 | 37017 ft | 451 kts | 211° |
| 2026-05-06 10:04 | 49.28178 | -2.78301 | 37019 ft | 450 kts | 211° |
| 2026-05-06 10:04 | 49.22742 | -2.83090 | 37011 ft | 451 kts | 211° |
| 2026-05-06 10:05 | 49.17307 | -2.87878 | 37014 ft | 451 kts | 211° |
| 2026-05-06 10:05 | 49.14468 | -2.89925 | 37016 ft | 452 kts | 198° |
| 2026-05-06 10:05 | 49.11402 | -2.90949 | 37012 ft | 452 kts | 190° |
| 2026-05-06 10:06 | 49.05186 | -2.92515 | 37009 ft | 453 kts | 190° |
| 2026-05-06 10:06 | 48.98990 | -2.94018 | 36999 ft | 454 kts | 189° |
| 2026-05-06 10:07 | 48.92744 | -2.95534 | 37002 ft | 454 kts | 190° |
| 2026-05-06 10:07 | 48.86495 | -2.97055 | 37002 ft | 455 kts | 190° |
| 2026-05-06 10:08 | 48.80245 | -2.98583 | 37002 ft | 455 kts | 190° |
| 2026-05-06 10:08 | 48.73988 | -3.00108 | 37001 ft | 455 kts | 190° |
| 2026-05-06 10:09 | 48.67730 | -3.01629 | 36997 ft | 455 kts | 190° |
| 2026-05-06 10:09 | 48.61474 | -3.03146 | 36996 ft | 455 kts | 190° |
| 2026-05-06 10:10 | 48.55245 | -3.04649 | 36985 ft | 455 kts | 190° |
| 2026-05-06 10:10 | 48.48983 | -3.06158 | 36999 ft | 456 kts | 190° |
| 2026-05-06 10:11 | 48.42819 | -3.07645 | 36996 ft | 456 kts | 190° |
| 2026-05-06 10:11 | 48.36551 | -3.09142 | 36992 ft | 456 kts | 189° |
| 2026-05-06 10:12 | 48.30273 | -3.10642 | 36993 ft | 457 kts | 190° |
| 2026-05-06 10:12 | 48.24034 | -3.12131 | 36993 ft | 457 kts | 190° |
| 2026-05-06 10:13 | 48.17746 | -3.13629 | 36998 ft | 457 kts | 190° |
| 2026-05-06 10:13 | 48.11465 | -3.15116 | 36993 ft | 457 kts | 189° |
| 2026-05-06 10:14 | 48.05180 | -3.16603 | 36987 ft | 457 kts | 189° |
| 2026-05-06 10:14 | 47.98898 | -3.18091 | 36994 ft | 457 kts | 189° |
| 2026-05-06 10:15 | 47.92611 | -3.19570 | 36991 ft | 457 kts | 190° |
| 2026-05-06 10:15 | 47.86324 | -3.21048 | 36993 ft | 457 kts | 190° |
| 2026-05-06 10:16 | 47.80042 | -3.22519 | 36996 ft | 457 kts | 189° |
| 2026-05-06 10:16 | 47.73792 | -3.23976 | 36988 ft | 457 kts | 189° |
| 2026-05-06 10:17 | 47.67501 | -3.25441 | 36993 ft | 457 kts | 189° |
| 2026-05-06 10:17 | 47.61216 | -3.26907 | 36992 ft | 457 kts | 190° |
| 2026-05-06 10:18 | 47.55132 | -3.28332 | 36994 ft | 457 kts | 189° |
| 2026-05-06 10:18 | 47.48845 | -3.29787 | 36992 ft | 457 kts | 189° |
| 2026-05-06 10:19 | 47.42559 | -3.31232 | 36997 ft | 457 kts | 189° |
| 2026-05-06 10:19 | 47.36269 | -3.32674 | 36996 ft | 457 kts | 190° |
| 2026-05-06 10:20 | 47.30193 | -3.34077 | 36977 ft | 458 kts | 191° |
| 2026-05-06 10:20 | 47.23904 | -3.35528 | 36989 ft | 459 kts | 190° |
| 2026-05-06 10:21 | 47.17588 | -3.36974 | 36985 ft | 459 kts | 190° |
| 2026-05-06 10:21 | 47.11317 | -3.38401 | 36989 ft | 460 kts | 189° |
| 2026-05-06 10:22 | 47.04988 | -3.39845 | 37003 ft | 460 kts | 190° |
| 2026-05-06 10:22 | 46.98658 | -3.41281 | 37003 ft | 460 kts | 191° |
| 2026-05-06 10:23 | 46.93389 | -3.42480 | 37006 ft | 460 kts | 190° |
| 2026-05-06 10:23 | 46.86028 | -3.44144 | 37008 ft | 460 kts | 189° |
| 2026-05-06 10:24 | 46.80727 | -3.45339 | 37011 ft | 460 kts | 190° |
| 2026-05-06 10:24 | 46.74402 | -3.46763 | 37014 ft | 460 kts | 189° |
| 2026-05-06 10:25 | 46.68075 | -3.48183 | 37009 ft | 460 kts | 189° |
| 2026-05-06 10:25 | 46.61790 | -3.49582 | 37014 ft | 459 kts | 190° |
| 2026-05-06 10:26 | 46.55464 | -3.50991 | 37012 ft | 459 kts | 190° |
| 2026-05-06 10:26 | 46.49140 | -3.52399 | 37007 ft | 459 kts | 190° |
| 2026-05-06 10:27 | 46.42821 | -3.53814 | 37009 ft | 459 kts | 190° |
| 2026-05-06 10:27 | 46.36502 | -3.55216 | 37006 ft | 459 kts | 189° |
| 2026-05-06 10:28 | 46.30223 | -3.56611 | 37009 ft | 459 kts | 189° |
| 2026-05-06 10:28 | 46.23901 | -3.58003 | 37010 ft | 459 kts | 190° |
| 2026-05-06 10:29 | 46.17586 | -3.59389 | 37005 ft | 459 kts | 190° |
| 2026-05-06 10:29 | 46.11263 | -3.60776 | 37003 ft | 459 kts | 189° |
| 2026-05-06 10:30 | 46.04936 | -3.62167 | 37002 ft | 460 kts | 189° |
| 2026-05-06 10:30 | 45.98608 | -3.63557 | 37012 ft | 460 kts | 190° |
| 2026-05-06 10:31 | 45.92312 | -3.64944 | 37022 ft | 460 kts | 191° |
| 2026-05-06 10:31 | 45.85972 | -3.66329 | 37022 ft | 460 kts | 190° |
| 2026-05-06 10:32 | 45.79633 | -3.67688 | 37026 ft | 460 kts | 189° |
| 2026-05-06 10:32 | 45.73335 | -3.69044 | 37024 ft | 460 kts | 189° |
| 2026-05-06 10:33 | 45.67008 | -3.70419 | 37021 ft | 459 kts | 190° |
| 2026-05-06 10:33 | 45.60683 | -3.71791 | 37023 ft | 460 kts | 190° |
| 2026-05-06 10:34 | 45.54359 | -3.73161 | 37028 ft | 459 kts | 190° |
| 2026-05-06 10:34 | 45.48042 | -3.74520 | 37026 ft | 459 kts | 190° |
| 2026-05-06 10:35 | 45.41725 | -3.75875 | 37027 ft | 459 kts | 189° |
| 2026-05-06 10:35 | 45.35410 | -3.77226 | 37027 ft | 458 kts | 190° |
| 2026-05-06 10:36 | 45.29137 | -3.78557 | 37032 ft | 458 kts | 191° |
| 2026-05-06 10:36 | 45.22824 | -3.79902 | 37028 ft | 458 kts | 190° |
| 2026-05-06 10:37 | 45.16525 | -3.81246 | 37038 ft | 458 kts | 189° |
| 2026-05-06 10:37 | 45.10221 | -3.82575 | 37029 ft | 457 kts | 190° |
| 2026-05-06 10:38 | 45.03920 | -3.83910 | 37029 ft | 457 kts | 189° |
| 2026-05-06 10:38 | 44.97631 | -3.85243 | 37035 ft | 457 kts | 190° |
| 2026-05-06 10:39 | 44.91386 | -3.86560 | 37027 ft | 457 kts | 190° |
| 2026-05-06 10:39 | 44.85099 | -3.87881 | 37034 ft | 457 kts | 190° |
| 2026-05-06 10:40 | 44.78807 | -3.89202 | 37035 ft | 456 kts | 190° |
| 2026-05-06 10:40 | 44.72528 | -3.90514 | 37037 ft | 456 kts | 190° |
| 2026-05-06 10:41 | 44.66285 | -3.91822 | 37039 ft | 456 kts | 190° |
| 2026-05-06 10:41 | 44.60004 | -3.93140 | 37046 ft | 456 kts | 190° |
| 2026-05-06 10:42 | 44.53732 | -3.94452 | 37035 ft | 456 kts | 190° |
| 2026-05-06 10:42 | 44.47446 | -3.95746 | 37038 ft | 456 kts | 190° |
| 2026-05-06 10:43 | 44.41160 | -3.97034 | 37044 ft | 456 kts | 190° |
| 2026-05-06 10:44 | 44.31752 | -3.98958 | 37040 ft | 456 kts | 189° |
| 2026-05-06 10:44 | 44.25430 | -3.99812 | 37042 ft | 457 kts | 186° |
| 2026-05-06 10:45 | 44.19126 | -4.00398 | 37045 ft | 457 kts | 186° |
| 2026-05-06 10:45 | 44.12787 | -4.01031 | 37043 ft | 457 kts | 187° |
| 2026-05-06 10:46 | 44.06447 | -4.01753 | 37044 ft | 457 kts | 187° |
| 2026-05-06 10:46 | 44.00109 | -4.02500 | 37046 ft | 457 kts | 187° |
| 2026-05-06 10:47 | 43.93770 | -4.03227 | 37041 ft | 457 kts | 187° |
| 2026-05-06 10:47 | 43.87435 | -4.03940 | 37047 ft | 457 kts | 187° |
| 2026-05-06 10:48 | 43.81093 | -4.04656 | 37053 ft | 457 kts | 187° |
| 2026-05-06 10:48 | 43.74758 | -4.05367 | 37048 ft | 457 kts | 187° |
| 2026-05-06 10:49 | 43.68467 | -4.06078 | 37052 ft | 456 kts | 187° |
| 2026-05-06 10:49 | 43.62131 | -4.06792 | 37052 ft | 456 kts | 187° |
| 2026-05-06 10:50 | 43.55801 | -4.07501 | 37049 ft | 456 kts | 187° |
| 2026-05-06 10:50 | 43.49480 | -4.08211 | 37061 ft | 456 kts | 187° |
| 2026-05-06 10:51 | 43.43163 | -4.08916 | 37065 ft | 456 kts | 187° |
| 2026-05-06 10:51 | 43.36840 | -4.09622 | 37062 ft | 455 kts | 187° |
| 2026-05-06 10:52 | 43.30521 | -4.10325 | 37061 ft | 456 kts | 187° |
| 2026-05-06 10:52 | 43.24250 | -4.11014 | 37062 ft | 456 kts | 187° |
| 2026-05-06 10:53 | 43.17928 | -4.11713 | 37049 ft | 455 kts | 187° |
| 2026-05-06 10:53 | 43.11612 | -4.12416 | 37033 ft | 455 kts | 188° |
| 2026-05-06 10:54 | 43.05305 | -4.13109 | 37042 ft | 455 kts | 188° |
| 2026-05-06 10:54 | 42.98994 | -4.13799 | 37044 ft | 454 kts | 188° |
| 2026-05-06 10:55 | 42.92693 | -4.14491 | 37027 ft | 454 kts | 188° |
| 2026-05-06 10:55 | 42.86402 | -4.15186 | 37031 ft | 453 kts | 188° |
| 2026-05-06 10:56 | 42.80155 | -4.15865 | 37028 ft | 453 kts | 188° |
| 2026-05-06 10:56 | 42.73874 | -4.16547 | 37023 ft | 452 kts | 188° |
| 2026-05-06 10:57 | 42.67601 | -4.17233 | 37023 ft | 452 kts | 188° |
| 2026-05-06 10:57 | 42.61317 | -4.17921 | 37022 ft | 453 kts | 188° |
| 2026-05-06 10:58 | 42.55040 | -4.18607 | 37022 ft | 453 kts | 188° |
| 2026-05-06 10:58 | 42.48764 | -4.19283 | 37011 ft | 452 kts | 188° |
| 2026-05-06 10:59 | 42.42498 | -4.19950 | 37019 ft | 451 kts | 188° |
| 2026-05-06 10:59 | 42.36236 | -4.20627 | 37021 ft | 451 kts | 188° |
| 2026-05-06 11:00 | 42.30022 | -4.21302 | 37018 ft | 450 kts | 188° |
| 2026-05-06 11:00 | 42.23785 | -4.21972 | 37025 ft | 450 kts | 188° |
| 2026-05-06 11:01 | 42.17546 | -4.22636 | 37027 ft | 450 kts | 188° |
| 2026-05-06 11:01 | 42.11312 | -4.23301 | 37010 ft | 449 kts | 188° |
| 2026-05-06 11:02 | 42.05085 | -4.23975 | 37014 ft | 448 kts | 188° |
| 2026-05-06 11:02 | 41.98863 | -4.24636 | 37025 ft | 448 kts | 188° |
| 2026-05-06 11:03 | 41.92645 | -4.25289 | 37031 ft | 448 kts | 188° |
| 2026-05-06 11:03 | 41.86431 | -4.25945 | 37025 ft | 448 kts | 188° |
| 2026-05-06 11:04 | 41.80223 | -4.26608 | 37028 ft | 447 kts | 189° |
| 2026-05-06 11:04 | 41.74018 | -4.27266 | 37030 ft | 447 kts | 188° |
| 2026-05-06 11:05 | 41.67809 | -4.27914 | 37017 ft | 447 kts | 189° |
| 2026-05-06 11:05 | 41.61605 | -4.28572 | 37027 ft | 447 kts | 189° |
| 2026-05-06 11:06 | 41.55455 | -4.29229 | 37034 ft | 446 kts | 189° |
| 2026-05-06 11:06 | 41.49256 | -4.29889 | 37035 ft | 446 kts | 189° |
| 2026-05-06 11:07 | 41.43051 | -4.30533 | 37023 ft | 446 kts | 189° |
| 2026-05-06 11:07 | 41.36860 | -4.31165 | 37033 ft | 446 kts | 189° |
| 2026-05-06 11:08 | 41.30671 | -4.31804 | 37036 ft | 446 kts | 189° |
| 2026-05-06 11:08 | 41.24525 | -4.32452 | 37021 ft | 445 kts | 189° |
| 2026-05-06 11:09 | 41.18349 | -4.33095 | 37028 ft | 445 kts | 189° |
| 2026-05-06 11:09 | 41.12180 | -4.33734 | 37031 ft | 444 kts | 189° |
| 2026-05-06 11:10 | 41.06051 | -4.34375 | 37029 ft | 444 kts | 189° |
| 2026-05-06 11:10 | 40.99901 | -4.35014 | 37022 ft | 443 kts | 189° |
| 2026-05-06 11:11 | 40.93755 | -4.35648 | 37027 ft | 442 kts | 189° |
| 2026-05-06 11:11 | 40.87609 | -4.36276 | 37024 ft | 442 kts | 189° |
| 2026-05-06 11:12 | 40.81513 | -4.36903 | 37011 ft | 442 kts | 189° |
| 2026-05-06 11:12 | 40.75390 | -4.37534 | 37018 ft | 441 kts | 189° |
| 2026-05-06 11:13 | 40.69276 | -4.38166 | 37016 ft | 441 kts | 189° |
| 2026-05-06 11:13 | 40.63159 | -4.38791 | 37014 ft | 440 kts | 189° |
| 2026-05-06 11:14 | 40.57051 | -4.39409 | 37012 ft | 440 kts | 189° |
| 2026-05-06 11:14 | 40.50931 | -4.40033 | 37014 ft | 441 kts | 189° |
| 2026-05-06 11:15 | 40.45843 | -4.40550 | 37006 ft | 441 kts | 189° |
| 2026-05-06 11:15 | 40.39710 | -4.41174 | 37009 ft | 441 kts | 189° |
| 2026-05-06 11:16 | 40.32600 | -4.41893 | 37004 ft | 440 kts | 189° |
| 2026-05-06 11:16 | 40.27481 | -4.42409 | 37005 ft | 440 kts | 189° |
| 2026-05-06 11:17 | 40.21378 | -4.43016 | 37003 ft | 440 kts | 189° |
| 2026-05-06 11:17 | 40.15310 | -4.43624 | 36997 ft | 439 kts | 189° |
| 2026-05-06 11:18 | 40.09216 | -4.44241 | 37002 ft | 439 kts | 189° |
| 2026-05-06 11:18 | 40.03133 | -4.44853 | 37012 ft | 438 kts | 189° |
| 2026-05-06 11:19 | 39.97056 | -4.45471 | 37009 ft | 438 kts | 189° |
| 2026-05-06 11:19 | 39.90988 | -4.46081 | 36980 ft | 437 kts | 189° |
| 2026-05-06 11:20 | 39.84924 | -4.46679 | 36990 ft | 437 kts | 189° |
| 2026-05-06 11:20 | 39.78858 | -4.47277 | 36992 ft | 436 kts | 189° |
| 2026-05-06 11:21 | 39.72802 | -4.47884 | 36991 ft | 436 kts | 189° |
| 2026-05-06 11:21 | 39.66746 | -4.48493 | 36982 ft | 436 kts | 189° |
| 2026-05-06 11:22 | 39.60703 | -4.49088 | 36988 ft | 435 kts | 189° |
| 2026-05-06 11:22 | 39.54700 | -4.49676 | 36987 ft | 435 kts | 189° |
| 2026-05-06 11:23 | 39.48652 | -4.50273 | 36959 ft | 435 kts | 189° |
| 2026-05-06 11:23 | 39.42620 | -4.50865 | 36974 ft | 435 kts | 189° |
| 2026-05-06 11:24 | 39.36630 | -4.51448 | 36982 ft | 434 kts | 189° |
| 2026-05-06 11:24 | 39.30605 | -4.52034 | 36985 ft | 433 kts | 189° |
| 2026-05-06 11:25 | 39.24598 | -4.52629 | 36966 ft | 433 kts | 190° |
| 2026-05-06 11:25 | 39.18597 | -4.53218 | 36980 ft | 432 kts | 190° |
| 2026-05-06 11:26 | 39.12606 | -4.53805 | 36978 ft | 431 kts | 190° |
| 2026-05-06 11:26 | 39.06674 | -4.54399 | 36978 ft | 431 kts | 190° |
| 2026-05-06 11:27 | 39.00698 | -4.54989 | 36959 ft | 430 kts | 190° |
| 2026-05-06 11:27 | 38.94725 | -4.55562 | 36974 ft | 429 kts | 190° |
| 2026-05-06 11:28 | 38.88818 | -4.56464 | 36975 ft | 425 kts | 195° |
| 2026-05-06 11:28 | 38.83049 | -4.57769 | 36979 ft | 423 kts | 196° |
| 2026-05-06 11:29 | 38.77251 | -4.59112 | 36961 ft | 424 kts | 195° |
| 2026-05-06 11:29 | 38.71427 | -4.60353 | 36967 ft | 424 kts | 194° |
| 2026-05-06 11:30 | 38.65597 | -4.61538 | 36964 ft | 424 kts | 194° |
| 2026-05-06 11:30 | 38.59773 | -4.62727 | 36966 ft | 424 kts | 194° |
| 2026-05-06 11:31 | 38.53957 | -4.63934 | 36944 ft | 423 kts | 195° |
| 2026-05-06 11:31 | 38.48181 | -4.65137 | 36958 ft | 423 kts | 195° |
| 2026-05-06 11:32 | 38.42371 | -4.66321 | 36963 ft | 422 kts | 195° |
| 2026-05-06 11:32 | 38.36565 | -4.67515 | 36961 ft | 422 kts | 195° |
| 2026-05-06 11:33 | 38.30801 | -4.68708 | 36963 ft | 422 kts | 195° |
| 2026-05-06 11:33 | 38.25003 | -4.69905 | 36961 ft | 422 kts | 195° |
| 2026-05-06 11:34 | 38.19197 | -4.71090 | 36963 ft | 422 kts | 195° |
| 2026-05-06 11:34 | 38.13395 | -4.72271 | 36958 ft | 422 kts | 195° |
| 2026-05-06 11:35 | 38.07591 | -4.73457 | 36945 ft | 422 kts | 195° |
| 2026-05-06 11:35 | 38.01785 | -4.74632 | 36953 ft | 422 kts | 195° |
| 2026-05-06 11:36 | 37.95987 | -4.75817 | 36959 ft | 422 kts | 195° |
| 2026-05-06 11:36 | 37.90198 | -4.77004 | 36962 ft | 422 kts | 195° |
| 2026-05-06 11:37 | 37.84438 | -4.78176 | 36934 ft | 422 kts | 195° |
| 2026-05-06 11:37 | 37.78636 | -4.79348 | 36947 ft | 422 kts | 195° |
| 2026-05-06 11:38 | 37.72839 | -4.80516 | 36949 ft | 422 kts | 195° |
| 2026-05-06 11:38 | 37.67044 | -4.81685 | 36855 ft | 422 kts | 195° |
| 2026-05-06 11:38 | 37.64140 | -4.82271 | 36584 ft | 421 kts | 195° |
| 2026-05-06 11:39 | 37.61251 | -4.82853 | 36309 ft | 420 kts | 195° |
| 2026-05-06 11:39 | 37.58365 | -4.83433 | 36051 ft | 419 kts | 195° |
| 2026-05-06 11:39 | 37.55489 | -4.84011 | 35798 ft | 418 kts | 195° |
| 2026-05-06 11:39 | 37.52613 | -4.84587 | 35544 ft | 418 kts | 195° |
| 2026-05-06 11:40 | 37.49784 | -4.85153 | 35307 ft | 417 kts | 195° |
| 2026-05-06 11:40 | 37.46919 | -4.85727 | 35058 ft | 417 kts | 195° |
| 2026-05-06 11:40 | 37.44054 | -4.86301 | 34809 ft | 416 kts | 195° |
| 2026-05-06 11:40 | 37.41199 | -4.86874 | 34574 ft | 415 kts | 195° |
| 2026-05-06 11:41 | 37.38345 | -4.87449 | 34338 ft | 415 kts | 195° |
| 2026-05-06 11:41 | 37.35491 | -4.88026 | 34072 ft | 415 kts | 195° |
| 2026-05-06 11:41 | 37.32645 | -4.88597 | 33818 ft | 414 kts | 195° |
| 2026-05-06 11:41 | 37.29794 | -4.89167 | 33553 ft | 415 kts | 195° |
| 2026-05-06 11:42 | 37.26935 | -4.89737 | 33269 ft | 416 kts | 195° |
| 2026-05-06 11:42 | 37.24073 | -4.90307 | 32999 ft | 418 kts | 195° |
| 2026-05-06 11:42 | 37.21199 | -4.90880 | 32731 ft | 419 kts | 195° |
| 2026-05-06 11:42 | 37.18312 | -4.91457 | 32462 ft | 420 kts | 195° |
| 2026-05-06 11:43 | 37.15454 | -4.92029 | 32179 ft | 421 kts | 195° |
| 2026-05-06 11:43 | 37.12547 | -4.92609 | 31269 ft | 426 kts | 195° |
| 2026-05-06 11:43 | 37.09610 | -4.93198 | 30450 ft | 428 kts | 194° |
| 2026-05-06 11:44 | 37.03611 | -4.93904 | 28435 ft | 443 kts | 182° |
| 2026-05-06 11:44 | 37.00521 | -4.93696 | 28061 ft | 446 kts | 182° |
| 2026-05-06 11:44 | 36.97415 | -4.93523 | 27328 ft | 448 kts | 183° |
| 2026-05-06 11:44 | 36.94275 | -4.93372 | 25676 ft | 453 kts | 182° |
| 2026-05-06 11:45 | 36.91114 | -4.93230 | 23780 ft | 457 kts | 182° |
| 2026-05-06 11:45 | 36.87946 | -4.93083 | 22201 ft | 453 kts | 182° |
| 2026-05-06 11:45 | 36.84823 | -4.92930 | 21403 ft | 446 kts | 181° |
| 2026-05-06 11:45 | 36.81729 | -4.92773 | 20436 ft | 444 kts | 181° |
| 2026-05-06 11:46 | 36.78648 | -4.92615 | 19477 ft | 442 kts | 180° |
| 2026-05-06 11:46 | 36.75615 | -4.92460 | 18539 ft | 438 kts | 180° |
| 2026-05-06 11:46 | 36.72634 | -4.92303 | 17536 ft | 420 kts | 180° |
| 2026-05-06 11:46 | 36.69774 | -4.92149 | 16649 ft | 402 kts | 180° |
| 2026-05-06 11:47 | 36.67027 | -4.92000 | 15798 ft | 390 kts | 180° |
| 2026-05-06 11:47 | 36.64317 | -4.91858 | 14963 ft | 389 kts | 180° |
| 2026-05-06 11:47 | 36.61624 | -4.91722 | 14172 ft | 385 kts | 180° |
| 2026-05-06 11:47 | 36.58953 | -4.91587 | 13384 ft | 386 kts | 179° |
| 2026-05-06 11:48 | 36.56264 | -4.91455 | 12608 ft | 385 kts | 179° |
| 2026-05-06 11:48 | 36.53590 | -4.91324 | 11871 ft | 384 kts | 179° |
| 2026-05-06 11:48 | 36.50927 | -4.91192 | 11189 ft | 380 kts | 179° |
| 2026-05-06 11:48 | 36.48343 | -4.91062 | 11003 ft | 360 kts | 179° |
| 2026-05-06 11:49 | 36.45945 | -4.90936 | 10851 ft | 330 kts | 179° |
| 2026-05-06 11:49 | 36.43737 | -4.90817 | 10713 ft | 306 kts | 180° |
| 2026-05-06 11:49 | 36.41665 | -4.90708 | 10418 ft | 291 kts | 180° |
| 2026-05-06 11:49 | 36.39649 | -4.90608 | 10176 ft | 289 kts | 180° |
| 2026-05-06 11:50 | 36.37641 | -4.90510 | 9938 ft | 288 kts | 180° |
| 2026-05-06 11:50 | 36.35675 | -4.90413 | 9780 ft | 286 kts | 180° |
| 2026-05-06 11:50 | 36.33691 | -4.90314 | 9658 ft | 285 kts | 180° |
| 2026-05-06 11:50 | 36.31702 | -4.90213 | 9524 ft | 285 kts | 180° |
| 2026-05-06 11:51 | 36.29718 | -4.90111 | 9389 ft | 285 kts | 180° |
| 2026-05-06 11:51 | 36.27738 | -4.90005 | 9247 ft | 284 kts | 180° |
| 2026-05-06 11:51 | 36.25765 | -4.89900 | 9128 ft | 284 kts | 181° |
| 2026-05-06 11:51 | 36.23798 | -4.89799 | 8966 ft | 284 kts | 180° |
| 2026-05-06 11:52 | 36.21836 | -4.89700 | 8722 ft | 277 kts | 180° |
| 2026-05-06 11:52 | 36.19980 | -4.89602 | 8591 ft | 258 kts | 179° |
| 2026-05-06 11:52 | 36.18204 | -4.89509 | 8464 ft | 253 kts | 181° |
| 2026-05-06 11:52 | 36.16454 | -4.89420 | 8338 ft | 251 kts | 179° |
| 2026-05-06 11:53 | 36.14726 | -4.89306 | 8126 ft | 244 kts | 173° |
| 2026-05-06 11:53 | 36.13133 | -4.88637 | 7795 ft | 246 kts | 149° |
| 2026-05-06 11:53 | 36.11922 | -4.87142 | 7469 ft | 250 kts | 120° |
| 2026-05-06 11:53 | 36.11426 | -4.85127 | 7160 ft | 251 kts | 92° |
| 2026-05-06 11:54 | 36.11762 | -4.83037 | 6860 ft | 250 kts | 63° |
| 2026-05-06 11:54 | 36.12821 | -4.81358 | 6542 ft | 248 kts | 38° |
| 2026-05-06 11:54 | 36.14334 | -4.80417 | 6203 ft | 241 kts | 12° |
| 2026-05-06 11:54 | 36.15971 | -4.80373 | 5814 ft | 233 kts | 347° |
| 2026-05-06 11:55 | 36.17428 | -4.81151 | 5412 ft | 226 kts | 322° |
| 2026-05-06 11:55 | 36.18475 | -4.82555 | 5049 ft | 221 kts | 299° |
| 2026-05-06 11:55 | 36.18988 | -4.84312 | 4678 ft | 216 kts | 276° |
| 2026-05-06 11:55 | 36.19040 | -4.86132 | 4343 ft | 207 kts | 269° |
| 2026-05-06 11:56 | 36.18962 | -4.87859 | 3961 ft | 196 kts | 264° |
| 2026-05-06 11:56 | 36.18792 | -4.89502 | 3580 ft | 188 kts | 263° |
| 2026-05-06 11:56 | 36.18614 | -4.91058 | 3198 ft | 176 kts | 262° |
| 2026-05-06 11:56 | 36.18454 | -4.92514 | 2824 ft | 166 kts | 263° |
| 2026-05-06 11:57 | 36.18308 | -4.93898 | 2461 ft | 158 kts | 262° |
| 2026-05-06 11:57 | 36.18171 | -4.95228 | 2080 ft | 154 kts | 263° |
| 2026-05-06 11:57 | 36.18045 | -4.96485 | 1992 ft | 143 kts | 265° |
| 2026-05-06 11:57 | 36.17931 | -4.97651 | 1996 ft | 138 kts | 264° |
| 2026-05-06 11:58 | 36.17818 | -4.98836 | 2001 ft | 135 kts | 265° |
| 2026-05-06 11:58 | 36.17710 | -4.99959 | 2003 ft | 132 kts | 266° |
| 2026-05-06 11:58 | 36.17603 | -5.01095 | 1997 ft | 133 kts | 266° |
| 2026-05-06 11:58 | 36.17498 | -5.02237 | 2000 ft | 133 kts | 267° |
| 2026-05-06 11:59 | 36.17393 | -5.03369 | 1999 ft | 132 kts | 267° |
| 2026-05-06 11:59 | 36.17286 | -5.04509 | 1997 ft | 133 kts | 266° |
| 2026-05-06 11:59 | 36.17179 | -5.05656 | 1995 ft | 133 kts | 265° |
| 2026-05-06 11:59 | 36.17075 | -5.06793 | 1997 ft | 134 kts | 266° |
| 2026-05-06 12:00 | 36.16970 | -5.07931 | 1998 ft | 132 kts | 266° |
| 2026-05-06 12:00 | 36.16867 | -5.09064 | 1988 ft | 132 kts | 265° |
| 2026-05-06 12:00 | 36.16760 | -5.10191 | 2000 ft | 131 kts | 266° |
| 2026-05-06 12:00 | 36.16657 | -5.11319 | 2062 ft | 132 kts | 266° |
| 2026-05-06 12:01 | 36.16558 | -5.12460 | 2022 ft | 134 kts | 267° |
| 2026-05-06 12:01 | 36.16463 | -5.13598 | 2008 ft | 133 kts | 266° |
| 2026-05-06 12:01 | 36.16358 | -5.14716 | 1981 ft | 133 kts | 265° |
| 2026-05-06 12:01 | 36.16262 | -5.15850 | 1960 ft | 133 kts | 267° |
| 2026-05-06 12:02 | 36.16155 | -5.16987 | 1935 ft | 133 kts | 264° |
| 2026-05-06 12:02 | 36.16018 | -5.18109 | 1949 ft | 131 kts | 263° |
| 2026-05-06 12:02 | 36.15907 | -5.19228 | 2120 ft | 132 kts | 265° |
| 2026-05-06 12:02 | 36.15816 | -5.20372 | 2415 ft | 135 kts | 268° |
| 2026-05-06 12:03 | 36.15722 | -5.21554 | 2735 ft | 141 kts | 266° |
| 2026-05-06 12:03 | 36.15615 | -5.22791 | 2881 ft | 145 kts | 264° |
| 2026-05-06 12:03 | 36.15525 | -5.24004 | 2645 ft | 138 kts | 268° |
| 2026-05-06 12:03 | 36.15445 | -5.25172 | 2296 ft | 135 kts | 268° |
| 2026-05-06 12:04 | 36.15390 | -5.26328 | 2007 ft | 133 kts | 269° |
| 2026-05-06 12:04 | 36.15355 | -5.27444 | 1765 ft | 130 kts | 269° |
| 2026-05-06 12:04 | 36.15321 | -5.28574 | 1547 ft | 134 kts | 269° |
| 2026-05-06 12:04 | 36.15305 | -5.29712 | 1290 ft | 131 kts | 269° |
| 2026-05-06 12:05 | 36.15285 | -5.30841 | 968 ft | 131 kts | 266° |
| 2026-05-06 12:05 | 36.15266 | -5.31975 | 664 ft | 132 kts | 264° |
| 2026-05-06 12:05 | 36.15203 | -5.33106 | 366 ft | 132 kts | 262° |
| 2026-05-06 12:05 | 36.15148 | -5.34244 | 35 ft | 132 kts | 259° |
| 2026-05-06 12:06 | 36.15118 | -5.35335 | 145 ft | 133 kts | 263° |
| 2026-05-06 12:06 | 36.15112 | -5.36517 | 833 ft | 143 kts | 267° |
| 2026-05-06 12:06 | 36.15057 | -5.37779 | 1395 ft | 152 kts | 261° |
| 2026-05-06 12:06 | 36.14456 | -5.38910 | 1525 ft | 171 kts | 219° |
| 2026-05-06 12:07 | 36.13672 | -5.39269 | 1607 ft | 195 kts | 191° |
| 2026-05-06 12:07 | 36.11772 | -5.39185 | 2310 ft | 212 kts | 179° |
| 2026-05-06 12:07 | 36.10290 | -5.39006 | 3140 ft | 215 kts | 178° |
| 2026-05-06 12:07 | 36.08777 | -5.38836 | 3788 ft | 223 kts | 179° |
| 2026-05-06 12:08 | 36.07755 | -5.38636 | 3927 ft | 226 kts | 165° |
| 2026-05-06 12:08 | 36.06433 | -5.37570 | 3996 ft | 232 kts | 132° |
| 2026-05-06 12:08 | 36.05480 | -5.35985 | 3991 ft | 228 kts | 124° |
| 2026-05-06 12:08 | 36.04620 | -5.34311 | 3703 ft | 233 kts | 117° |
| 2026-05-06 12:09 | 36.04110 | -5.32414 | 3374 ft | 233 kts | 102° |
| 2026-05-06 12:09 | 36.03792 | -5.30462 | 3023 ft | 230 kts | 95° |
| 2026-05-06 12:09 | 36.03692 | -5.28465 | 2686 ft | 238 kts | 91° |
| 2026-05-06 12:09 | 36.03789 | -5.26397 | 2333 ft | 246 kts | 73° |
| 2026-05-06 12:10 | 36.04581 | -5.24547 | 1981 ft | 245 kts | 44° |
| 2026-05-06 12:10 | 36.05960 | -5.23395 | 1778 ft | 235 kts | 15° |
| 2026-05-06 12:10 | 36.07512 | -5.23125 | 1590 ft | 217 kts | 352° |
| 2026-05-06 12:10 | 36.08985 | -5.23248 | 1476 ft | 209 kts | 352° |
| 2026-05-06 12:11 | 36.10420 | -5.23369 | 1350 ft | 207 kts | 352° |
| 2026-05-06 12:11 | 36.11835 | -5.23489 | 1228 ft | 198 kts | 351° |
| 2026-05-06 12:11 | 36.13143 | -5.23595 | 1019 ft | 178 kts | 352° |
| 2026-05-06 12:11 | 36.14319 | -5.23691 | 856 ft | 161 kts | 348° |
| 2026-05-06 12:12 | 36.15232 | -5.24240 | 754 ft | 139 kts | 299° |
| 2026-05-06 12:12 | 36.15440 | -5.25333 | 786 ft | 129 kts | 264° |
| 2026-05-06 12:12 | 36.15406 | -5.26444 | 809 ft | 129 kts | 263° |
| 2026-05-06 12:12 | 36.15389 | -5.27558 | 753 ft | 130 kts | 264° |
| 2026-05-06 12:13 | 36.15372 | -5.28674 | 643 ft | 129 kts | 264° |
| 2026-05-06 12:13 | 36.15314 | -5.29768 | 520 ft | 129 kts | 259° |
| 2026-05-06 12:13 | 36.15276 | -5.30870 | 438 ft | 129 kts | 260° |
| 2026-05-06 12:13 | 36.15232 | -5.31994 | 280 ft | 130 kts | 258° |
| 2026-05-06 12:14 | 36.15184 | -5.33119 | 180 ft | 132 kts | 261° |
| 2026-05-06 12:14 | 36.15144 | -5.34254 | 47 ft | 131 kts | 260° |
| 2026-05-06 12:14 | 36.15097 | -5.35254 | 19 ft | 75 kts | 266° |
| 2026-05-06 12:14 | 36.15089 | -5.35676 | 17 ft | 29 kts | 272° |
| 2026-05-06 12:15 | 36.15074 | -5.35837 | 17 ft | 16 kts | 234° |
| 2026-05-06 12:15 | 36.15073 | -5.35945 | 16 ft | 13 kts | 344° |
| 2026-05-06 12:15 | 36.15092 | -5.35899 | 16 ft | 8 kts | 95° |
| 2026-05-06 12:15 | 36.15091 | -5.35815 | 17 ft | 12 kts | 86° |
| 2026-05-06 12:16 | 36.15096 | -5.35689 | 17 ft | 16 kts | 88° |
| 2026-05-06 12:16 | 36.15101 | -5.35539 | 21 ft | 19 kts | 87° |
| 2026-05-06 12:16 | 36.15109 | -5.35365 | 21 ft | 25 kts | 86° |
| 2026-05-06 12:16 | 36.15115 | -5.35123 | 20 ft | 32 kts | 89° |
| 2026-05-06 12:17 | 36.15122 | -5.34832 | 19 ft | 26 kts | 85° |
| 2026-05-06 12:17 | 36.15158 | -5.34691 | 18 ft | 12 kts | 20° |
| 2026-05-06 12:17 | 36.15213 | -5.34676 | 19 ft | 8 kts | 11° |
| 2026-05-06 12:17 | 36.15257 | -5.34673 | 18 ft | 5 kts | 358° |
| 2026-05-06 12:18 | 36.15285 | -5.34674 | 18 ft | 3 kts | 357° |
| 2026-05-06 12:18 | 36.15298 | -5.34675 | 18 ft | 2 kts | 357° |
| 2026-05-06 12:18 | 36.15303 | -5.34675 | 18 ft | 0 kts | 357° |